Hauptseite
METAR-TAF:

METAR-TAF

Flughäfen :

Sønderborg, Dänemark

Flughafen Sønderborg

Breite: 54-58N, Länge: 009-47E, Höhe: 7 m

Beobachtung

Neuester Wetterbericht von vor 28 Minuten, um 08:26 UTC
Wind 7 kt aus Süd, variierte zwischen Südost und Süd/Südwest
Temperatur 8°C
Luftfeuchtigkeit 93%
Luftdruck 999 hPa
Sichtweite: 3200 m
Durchbrochene Bewölkung in der Höhe von 500 ft
Leichtregen

METAR: EKSB 270826Z 17007KT 140V210 3200 -RA BKN005 08/07 Q0999

Zeit: 09:54 (08:54 UTC)

Prognose

Neuester Wetterbericht von vor 3 Stunden und 1 Minuten, um 05:53 UTC
Gültige Prognose vom 27 um 06 UTC bis 27 um 15 UTC
Wind 12 kt aus Süd
Sichtweite 10 km oder mehr
Durchbrochene Bewölkung in der Höhe von 1500 ft
Zeitweise
vom 27 um 06 UTC bis 27 um 15 UTC
Sichtweite: 2500 m
Durchbrochene Bewölkung in der Höhe von 500 ft
Regen, Sprühregen

TAF: EKSB 270553Z 2706/2715 19012KT 9999 BKN015 TEMPO 2706/2715 2500 RADZ BKN005

Wetterbeobachtungen und Prognosen von mehr als 4000 Flughäfen (METAR und TAF Bericht).

Die verfügbaren Stationen werden durch gelbe und rote Markierungen auf der Karte dargestellt.

Führen Sie die Maus auf sie, um den Namen der Station zu sehen.

Darauf klicken, um die Beobachtung von Wetterbeobachtungen und Prognosen zu sehen.

Um die Karte zu ändern : klicken Sie auf den grünen Tasten mit einem schwarzen Kreuz Zum Vergrößern, auf den grünen Button mit einem Gedankenstrich zu verkleinern, oder auf die grünen Pfeile für benachbarte Karten.


METAR-TAF: